Terminal Aerodrome Forecast
Issued by NWS

Home | Current Version | Previous Version | Graphics & Text | Print | Product List | Glossary On
Versions: 1 2 3 4 5 6 7 8 9 10 11 12 13 14 15 16 17 18 19 20 21 22 23 24 25
000
FTUS43 KLSX 191739
TAFSUS
TAF
KSUS 191739Z 1918/2018 19018G29KT 5SM -SHRA OVC040
     FM192100 19017G28KT 5SM -SHRA VCTS OVC025CB
     FM200400 18015G24KT 4SM -SHRA OVC020
     FM201500 19017G27KT 5SM -SHRA OVC015=

USA.gov is the U.S. government's official web portal to all federal, state and local government web resources and services.